createdAt,value
2018-12-09T00:00:51.986Z,3.25
2018-12-09T00:03:40.766Z,3.45
2018-12-09T00:06:28.637Z,3.37
2018-12-09T00:09:16.558Z,3.73
2018-12-09T00:12:04.531Z,3.45
2018-12-09T00:17:45.663Z,3.00
2018-12-09T00:20:33.550Z,4.57
2018-12-09T00:23:21.475Z,2.80
2018-12-09T00:26:09.439Z,3.27
2018-12-09T00:28:57.430Z,4.30
2018-12-09T00:34:39.190Z,3.30
2018-12-09T00:37:27.163Z,2.93
2018-12-09T00:40:15.114Z,2.35
2018-12-09T00:43:03.023Z,2.80
2018-12-09T00:45:50.975Z,2.90
2018-12-09T00:48:38.800Z,3.00
2018-12-09T00:54:33.828Z,3.03
2018-12-09T00:57:21.602Z,2.90
2018-12-09T01:00:30.961Z,2.77
2018-12-09T01:03:18.771Z,2.30
2018-12-09T01:06:06.698Z,2.50
2018-12-09T01:08:54.520Z,2.60
2018-12-09T01:11:42.483Z,3.03
2018-12-09T01:14:30.499Z,2.30
2018-12-09T01:17:18.292Z,2.40
2018-12-09T01:20:27.673Z,2.70
2018-12-09T01:23:15.594Z,3.17
2018-12-09T01:26:03.554Z,3.43
2018-12-09T01:28:52.252Z,3.47
2018-12-09T01:31:40.149Z,4.23
2018-12-09T01:34:27.987Z,4.13
2018-12-09T01:37:15.945Z,3.63
2018-12-09T01:40:25.318Z,3.97
2018-12-09T01:43:13.138Z,4.60
2018-12-09T01:46:01.103Z,4.65
2018-12-09T01:48:48.994Z,4.60
2018-12-09T01:54:43.868Z,4.80
2018-12-09T01:57:31.748Z,4.67
2018-12-09T02:00:19.671Z,4.42
2018-12-09T02:03:07.545Z,3.90
2018-12-09T02:05:55.359Z,3.90
2018-12-09T02:08:43.161Z,4.75
2018-12-09T02:11:31.125Z,5.00
2018-12-09T02:14:19.090Z,5.03
2018-12-09T02:17:07.065Z,5.83
2018-12-09T02:19:35.374Z,5.43
2018-12-09T02:22:23.256Z,5.20
2018-12-09T02:25:11.209Z,4.50
2018-12-09T02:28:00.928Z,4.67
2018-12-09T02:30:48.736Z,5.10
2018-12-09T02:33:38.520Z,5.47
2018-12-09T02:36:26.429Z,5.10
2018-12-09T02:39:14.475Z,4.40
2018-12-09T02:42:02.359Z,5.17
2018-12-09T02:44:50.190Z,4.80
2018-12-09T02:47:38.089Z,4.63
2018-12-09T02:50:25.952Z,4.60
2018-12-09T02:53:13.896Z,5.03
2018-12-09T02:56:01.740Z,4.03
2018-12-09T02:58:49.576Z,3.77
2018-12-09T03:01:58.238Z,3.95
2018-12-09T03:04:48.056Z,4.50
2018-12-09T03:07:36.025Z,3.87
2018-12-09T03:10:23.813Z,4.23
2018-12-09T03:13:11.675Z,4.33
2018-12-09T03:15:59.515Z,4.13
2018-12-09T03:18:47.332Z,4.37
2018-12-09T03:21:35.119Z,4.58
2018-12-09T03:24:23.035Z,4.83
2018-12-09T03:27:11.079Z,4.05
2018-12-09T03:30:00.750Z,4.47
2018-12-09T03:32:48.640Z,4.47
2018-12-09T03:38:29.832Z,4.70
2018-12-09T03:41:17.644Z,4.07
2018-12-09T03:44:05.527Z,4.17
2018-12-09T03:46:53.438Z,4.23
2018-12-09T03:49:41.290Z,4.03
2018-12-09T03:52:29.189Z,4.20
2018-12-09T03:55:16.984Z,4.03
2018-12-09T03:58:05.229Z,4.47
2018-12-09T04:00:53.077Z,4.53
2018-12-09T04:03:40.914Z,5.00
2018-12-09T04:06:28.831Z,3.90
2018-12-09T04:09:16.636Z,3.63
2018-12-09T04:12:04.443Z,4.60
2018-12-09T04:14:52.360Z,4.95
2018-12-09T04:17:40.178Z,3.83
2018-12-09T04:20:28.020Z,4.10
2018-12-09T04:23:15.837Z,4.33
2018-12-09T04:26:03.755Z,4.35
2018-12-09T04:28:51.584Z,3.90
2018-12-09T04:31:39.530Z,3.97
2018-12-09T04:34:27.376Z,4.47
2018-12-09T04:37:15.154Z,4.17
2018-12-09T04:40:03.053Z,4.17
2018-12-09T04:42:50.916Z,4.03
2018-12-09T04:45:38.719Z,4.03
2018-12-09T04:48:26.527Z,4.60
2018-12-09T04:51:14.334Z,3.90
2018-12-09T04:54:02.130Z,4.60
2018-12-09T04:56:50.062Z,4.10
2018-12-09T04:59:59.377Z,3.83
2018-12-09T05:02:47.310Z,3.53
2018-12-09T05:05:35.089Z,3.83
2018-12-09T05:08:22.993Z,3.52
2018-12-09T05:11:10.819Z,2.90
2018-12-09T05:13:58.705Z,3.30
2018-12-09T05:16:46.710Z,2.87
2018-12-09T05:19:34.535Z,3.05
2018-12-09T05:22:22.355Z,2.90
2018-12-09T05:25:10.259Z,3.42
2018-12-09T05:27:58.085Z,2.70
2018-12-09T05:30:45.956Z,3.17
2018-12-09T05:33:33.845Z,3.15
2018-12-09T05:36:21.707Z,3.65
2018-12-09T05:39:09.614Z,4.07
2018-12-09T05:41:57.430Z,3.77
2018-12-09T05:44:45.249Z,3.27
2018-12-09T05:47:33.832Z,3.10
2018-12-09T05:50:21.629Z,2.77
2018-12-09T05:53:09.515Z,3.30
2018-12-09T05:55:57.301Z,3.07
2018-12-09T05:58:45.211Z,3.40
2018-12-09T06:01:33.101Z,3.23
2018-12-09T06:04:20.961Z,2.87
2018-12-09T06:07:08.870Z,2.97
2018-12-09T06:09:56.737Z,3.07
2018-12-09T06:12:44.552Z,2.90
2018-12-09T06:15:32.407Z,2.83
2018-12-09T06:18:20.419Z,3.10
2018-12-09T06:21:08.296Z,3.30
2018-12-09T06:23:56.167Z,3.07
2018-12-09T06:26:43.965Z,3.07
2018-12-09T06:29:31.845Z,3.23
2018-12-09T06:32:19.823Z,3.47
2018-12-09T06:35:07.815Z,3.83
2018-12-09T06:37:55.622Z,3.80
2018-12-09T06:40:43.424Z,4.30
2018-12-09T06:43:31.395Z,4.15
2018-12-09T06:46:19.309Z,4.20
2018-12-09T06:49:07.199Z,4.17
2018-12-09T06:51:56.899Z,3.97
2018-12-09T06:54:44.720Z,3.65
2018-12-09T06:57:34.503Z,3.67
2018-12-09T07:00:22.456Z,3.40
2018-12-09T07:03:12.166Z,3.10
2018-12-09T07:06:00.006Z,3.73
2018-12-09T07:08:49.740Z,3.53
2018-12-09T07:11:37.624Z,3.37
2018-12-09T07:14:27.255Z,3.00
2018-12-09T07:17:15.137Z,2.80
2018-12-09T07:26:14.273Z,3.67
2018-12-09T07:29:04.155Z,3.90
2018-12-09T07:31:51.963Z,3.83
2018-12-09T07:34:41.693Z,4.00
2018-12-09T07:37:29.503Z,5.00
2018-12-09T07:40:19.392Z,4.10
2018-12-09T07:46:00.545Z,4.27
2018-12-09T07:48:48.432Z,4.65
2018-12-09T07:51:36.314Z,5.17
2018-12-09T07:57:18.271Z,4.80
2018-12-09T08:00:27.622Z,4.50
2018-12-09T08:03:15.560Z,6.83
2018-12-09T08:06:03.474Z,5.93
2018-12-09T08:08:51.387Z,5.83
2018-12-09T08:11:39.325Z,6.03
2018-12-09T08:14:27.259Z,5.40
2018-12-09T08:20:08.486Z,5.40
2018-12-09T08:22:56.381Z,5.50
2018-12-09T08:25:44.363Z,5.17
2018-12-09T08:28:32.276Z,4.90
2018-12-09T08:31:20.188Z,5.00
2018-12-09T08:34:08.077Z,4.63
2018-12-09T08:36:55.906Z,4.97
2018-12-09T08:39:43.808Z,4.83
2018-12-09T08:42:31.710Z,5.47
2018-12-09T08:45:19.591Z,5.47
2018-12-09T08:48:07.605Z,5.40
2018-12-09T08:50:55.503Z,4.67
2018-12-09T08:53:43.327Z,6.07
2018-12-09T08:56:31.172Z,4.92
2018-12-09T08:59:18.973Z,4.67
2018-12-09T09:02:07.025Z,4.93
2018-12-09T09:04:54.876Z,4.73
2018-12-09T09:07:42.822Z,4.60
2018-12-09T09:10:30.740Z,5.10
2018-12-09T09:19:05.981Z,1.80
2018-12-09T09:21:53.878Z,1.80
2018-12-09T09:24:41.777Z,1.77
2018-12-09T09:27:29.775Z,1.33
2018-12-09T09:30:17.670Z,0.87
2018-12-09T09:33:05.680Z,1.27
2018-12-09T09:41:55.615Z,1.30
2018-12-09T09:44:43.588Z,1.10
2018-12-09T09:47:31.579Z,1.30
2018-12-09T09:50:19.601Z,1.00
2018-12-09T09:53:07.496Z,1.20
2018-12-09T09:55:55.406Z,1.17
2018-12-09T09:58:43.350Z,1.10
2018-12-09T10:01:31.345Z,1.20
2018-12-09T10:04:19.321Z,1.10
2018-12-09T10:07:07.203Z,1.70
2018-12-09T10:12:48.837Z,1.30
2018-12-09T10:15:36.760Z,1.30
2018-12-09T10:18:24.723Z,1.40
2018-12-09T10:21:12.944Z,1.50
2018-12-09T10:24:00.919Z,1.00
2018-12-09T10:29:42.134Z,1.10
2018-12-09T10:32:30.173Z,1.03
2018-12-09T10:35:18.116Z,1.27
2018-12-09T10:38:06.138Z,1.25
2018-12-09T10:43:53.237Z,1.30
2018-12-09T10:46:41.271Z,1.40
2018-12-09T10:49:29.223Z,1.10
2018-12-09T10:52:17.375Z,1.33
2018-12-09T10:55:05.410Z,1.10
2018-12-09T10:57:53.312Z,1.10
2018-12-09T11:01:00.626Z,1.15
2018-12-09T11:06:24.708Z,1.70
2018-12-09T11:09:12.655Z,1.63
2018-12-09T11:12:00.566Z,1.53
2018-12-09T11:14:48.610Z,1.40
2018-12-09T11:23:24.734Z,1.30
2018-12-09T11:26:12.589Z,1.37
2018-12-09T11:29:01.200Z,1.45
2018-12-09T11:31:50.453Z,1.90
2018-12-09T11:34:38.417Z,1.87
2018-12-09T11:37:26.378Z,2.50
2018-12-09T11:40:14.270Z,2.80
2018-12-09T11:45:57.522Z,2.87
2018-12-09T11:48:45.528Z,3.20
2018-12-09T11:51:33.560Z,2.40
2018-12-09T11:54:21.400Z,2.13
2018-12-09T11:57:09.490Z,1.80
2018-12-09T12:03:04.503Z,2.30
2018-12-09T12:05:46.002Z,1.97
2018-12-09T12:08:34.108Z,2.00
2018-12-09T12:14:16.424Z,2.03
2018-12-09T12:17:04.395Z,2.13
2018-12-09T12:19:52.338Z,2.10
2018-12-09T12:22:54.076Z,1.80
2018-12-09T12:28:37.320Z,2.23
2018-12-09T12:40:31.892Z,2.63
2018-12-09T12:43:10.166Z,3.50
2018-12-09T12:49:06.881Z,3.58
2018-12-09T12:51:54.940Z,4.00
2018-12-09T12:54:42.909Z,3.97
2018-12-09T12:57:30.927Z,4.60
2018-12-09T13:00:18.993Z,4.57
2018-12-09T13:03:06.943Z,4.27
2018-12-09T13:08:50.695Z,4.95
2018-12-09T13:11:38.690Z,5.20
2018-12-09T13:17:20.709Z,4.10
2018-12-09T13:20:08.744Z,3.67
2018-12-09T13:22:56.611Z,3.83
2018-12-09T13:25:44.660Z,4.10
2018-12-09T13:28:32.622Z,3.83
2018-12-09T13:31:20.625Z,3.97
2018-12-09T13:34:08.625Z,3.90
2018-12-09T13:36:56.523Z,4.13
2018-12-09T13:42:51.507Z,3.95
2018-12-09T13:45:51.235Z,3.70
2018-12-09T13:48:29.359Z,3.80
2018-12-09T13:51:17.426Z,3.97
2018-12-09T13:54:05.443Z,4.60
2018-12-09T14:00:00.450Z,3.77
2018-12-09T14:02:48.890Z,3.60
2018-12-09T14:05:36.853Z,3.98
2018-12-09T14:08:24.824Z,3.33
2018-12-09T14:11:12.913Z,3.67
2018-12-09T14:16:54.399Z,3.40
2018-12-09T14:19:42.428Z,3.87
2018-12-09T14:22:30.309Z,3.80
2018-12-09T14:25:18.307Z,3.50
2018-12-09T14:28:06.365Z,3.73
2018-12-09T14:30:54.318Z,3.87
2018-12-09T14:33:42.278Z,3.47
2018-12-09T14:36:30.208Z,4.43
2018-12-09T14:39:18.150Z,4.12
2018-12-09T14:42:06.082Z,3.03
2018-12-09T14:44:54.160Z,3.17
2018-12-09T14:47:42.076Z,3.30
2018-12-09T14:50:30.064Z,4.25
2018-12-09T14:53:18.073Z,3.83
2018-12-09T14:56:06.046Z,3.20
2018-12-09T15:01:47.457Z,3.70
2018-12-09T15:04:35.439Z,3.23
2018-12-09T15:07:23.343Z,3.93
2018-12-09T15:16:13.473Z,3.50
2018-12-09T15:19:01.530Z,3.22
2018-12-09T15:21:49.430Z,4.10
2018-12-09T15:24:41.377Z,3.90
2018-12-09T15:27:27.294Z,3.93
2018-12-09T15:30:15.251Z,2.70
2018-12-09T15:36:10.354Z,3.10
2018-12-09T15:38:58.313Z,3.33
2018-12-09T15:41:46.287Z,2.52
2018-12-09T15:44:34.217Z,2.53
2018-12-09T15:47:22.200Z,2.90
2018-12-09T15:50:10.499Z,2.57
2018-12-09T15:52:58.553Z,3.85
2018-12-09T15:55:27.050Z,3.90
2018-12-09T15:58:15.028Z,3.47
2018-12-09T16:01:02.913Z,2.80
2018-12-09T16:03:50.918Z,2.92
2018-12-09T16:06:39.021Z,2.87
2018-12-09T16:09:26.950Z,3.10
2018-12-09T16:12:14.968Z,2.50
2018-12-09T16:15:03.008Z,2.22
2018-12-09T16:17:51.055Z,3.30
2018-12-09T16:20:40.872Z,2.80
2018-12-09T16:23:29.511Z,3.37
2018-12-09T16:26:17.461Z,2.70
2018-12-09T16:29:05.675Z,2.70
2018-12-09T16:37:54.775Z,2.70
2018-12-09T16:40:56.799Z,2.50
2018-12-09T16:43:32.824Z,2.63
2018-12-09T16:46:20.817Z,2.33
2018-12-09T16:49:08.827Z,2.00
2018-12-09T16:51:56.916Z,2.67
2018-12-09T16:54:44.938Z,2.67
2018-12-09T16:57:32.867Z,3.33
2018-12-09T17:03:14.851Z,1.97
2018-12-09T17:06:02.811Z,1.77
2018-12-09T17:08:51.123Z,2.20
2018-12-09T17:11:39.129Z,2.70
2018-12-09T17:17:34.225Z,2.57
2018-12-09T17:20:22.141Z,3.20
2018-12-09T17:23:10.128Z,2.80
2018-12-09T17:25:58.113Z,3.20
2018-12-09T17:28:46.395Z,3.30
2018-12-09T17:31:34.494Z,3.30
2018-12-09T17:40:12.875Z,3.52
2018-12-09T17:43:00.853Z,3.40
2018-12-09T17:45:48.736Z,3.80
2018-12-09T17:48:36.709Z,3.37
2018-12-09T17:51:24.762Z,3.83
2018-12-09T17:54:12.764Z,3.70
2018-12-09T17:57:00.902Z,4.10
2018-12-09T17:59:30.585Z,5.17
2018-12-09T18:05:12.555Z,5.20
2018-12-09T18:13:48.941Z,4.20
2018-12-09T18:16:36.994Z,4.33
2018-12-09T18:22:20.263Z,3.90
2018-12-09T18:25:09.629Z,4.10
2018-12-09T18:27:57.837Z,3.67
2018-12-09T18:30:46.028Z,3.77
2018-12-09T18:33:34.660Z,3.70
2018-12-09T18:38:56.394Z,3.73
2018-12-09T18:41:44.509Z,4.58
2018-12-09T18:44:32.572Z,3.80
2018-12-09T18:47:20.634Z,4.23
2018-12-09T18:49:48.954Z,4.22
2018-12-09T18:52:36.984Z,3.90
2018-12-09T18:55:26.785Z,3.93
2018-12-09T18:58:14.763Z,4.47
2018-12-09T19:01:02.758Z,4.05
2018-12-09T19:07:19.189Z,3.37
2018-12-09T19:10:07.294Z,3.60
2018-12-09T19:12:57.146Z,4.07
2018-12-09T19:15:46.949Z,4.23
2018-12-09T19:18:35.237Z,5.13
2018-12-09T19:24:17.098Z,3.55
2018-12-09T19:27:05.115Z,4.13
2018-12-09T19:33:00.233Z,4.17
2018-12-09T19:35:48.107Z,4.90
2018-12-09T19:38:40.272Z,4.17
2018-12-09T19:41:26.155Z,3.83
2018-12-09T19:47:21.466Z,3.62
2018-12-09T19:52:53.787Z,3.40
2018-12-09T19:55:42.007Z,4.30
2018-12-09T19:58:29.876Z,3.50
2018-12-09T20:04:24.913Z,3.43
2018-12-09T20:07:12.984Z,3.53
2018-12-09T20:10:00.963Z,3.67
2018-12-09T20:12:49.012Z,4.30
2018-12-09T20:15:36.958Z,3.80
2018-12-09T20:18:25.087Z,4.00
2018-12-09T20:21:13.053Z,3.67
2018-12-09T20:24:01.159Z,4.20
2018-12-09T20:26:50.982Z,4.67
2018-12-09T20:32:35.323Z,4.43
2018-12-09T20:41:09.420Z,4.97
2018-12-09T20:43:57.360Z,5.00
2018-12-09T20:52:32.693Z,5.33
2018-12-09T20:55:20.714Z,5.43
2018-12-09T20:58:08.615Z,4.85
2018-12-09T21:00:56.566Z,4.33
2018-12-09T21:03:44.550Z,4.97
2018-12-09T21:06:32.756Z,5.10
2018-12-09T21:09:20.756Z,5.50
2018-12-09T21:15:15.677Z,4.97
2018-12-09T21:18:03.726Z,4.93
2018-12-09T21:20:51.715Z,5.17
2018-12-09T21:23:39.664Z,4.77
2018-12-09T21:26:27.573Z,4.90
2018-12-09T21:29:15.595Z,4.67
2018-12-09T21:32:03.555Z,5.07
2018-12-09T21:37:25.761Z,5.03
2018-12-09T21:43:07.431Z,5.90
2018-12-09T21:52:17.137Z,5.27
2018-12-09T21:55:05.309Z,4.80
2018-12-09T22:00:47.112Z,5.07
2018-12-09T22:03:34.959Z,4.63
2018-12-09T22:06:22.917Z,6.17
2018-12-09T22:09:10.828Z,4.97
2018-12-09T22:14:51.995Z,4.17
2018-12-09T22:17:39.906Z,4.45
2018-12-09T22:20:27.911Z,4.55
2018-12-09T22:23:15.754Z,4.57
2018-12-09T22:26:03.722Z,4.27
2018-12-09T22:28:51.620Z,3.90
2018-12-09T22:31:39.577Z,4.07
2018-12-09T22:34:27.551Z,4.23
2018-12-09T22:37:15.486Z,3.93
2018-12-09T22:48:57.872Z,4.30
2018-12-09T22:51:45.721Z,4.20
2018-12-09T22:54:33.627Z,4.12
2018-12-09T22:57:21.586Z,4.20
2018-12-09T23:00:30.955Z,4.77
2018-12-09T23:03:18.869Z,3.23
2018-12-09T23:06:06.761Z,3.80
2018-12-09T23:08:54.741Z,3.73
2018-12-09T23:11:42.578Z,3.83
2018-12-09T23:14:30.579Z,3.70
2018-12-09T23:17:18.401Z,4.07
2018-12-09T23:23:01.290Z,3.37
2018-12-09T23:25:49.111Z,3.40
2018-12-09T23:28:37.118Z,3.87
2018-12-09T23:31:25.079Z,3.43
2018-12-09T23:33:53.284Z,3.80
2018-12-09T23:36:41.137Z,3.97
2018-12-09T23:39:28.957Z,3.60
2018-12-09T23:42:16.855Z,4.20
2018-12-09T23:45:05.142Z,3.87
2018-12-09T23:47:53.163Z,3.50
2018-12-09T23:50:41.121Z,4.53
2018-12-09T23:53:28.948Z,4.70
2018-12-09T23:56:16.819Z,4.72
2018-12-09T23:59:04.634Z,5.03
